Time;durP1;ratioP1;P1;durP2;ratioP2;P2;SDS_P1;SDS_P2;PMS_P1;PMS_P2;Temp;Humidity;BMP_temperature;BMP_pressure;BME280_temperature;BME280_humidity;BME280_pressure;Samples;Min_cycle;Max_cycle;Signal;HPM_P1;HPM_P2
2021/12/03 00:00:36;;;;;;;31.23;10.10;;;;;;;;;;5047677;28;20111;-67
2021/12/03 00:03:03;;;;;;;30.98;9.82;;;;;;;;;;5040493;28;20041;-67
2021/12/03 00:05:28;;;;;;;29.67;8.68;;;;;;;;;;5046930;28;20021;-67
2021/12/03 00:07:54;;;;;;;25.55;8.80;;;;;;;;;;5035136;28;20041;-67
2021/12/03 00:10:23;;;;;;;34.83;10.20;;;;;;;;;;5042944;28;20064;-67
2021/12/03 00:12:49;;;;;;;22.05;8.10;;;;;;;;;;5046398;28;20037;-67
2021/12/03 00:15:16;;;;;;;23.13;9.02;;;;;;;;;;5024248;28;20426;-67
2021/12/03 00:17:41;;;;;;;32.25;8.45;;;;;;;;;;5045342;28;20029;-67
2021/12/03 00:20:10;;;;;;;32.65;9.00;;;;;;;;;;5033564;28;20087;-67
2021/12/03 00:22:36;;;;;;;27.73;9.02;;;;;;;;;;5038173;28;20057;-67
2021/12/03 00:25:03;;;;;;;32.45;9.48;;;;;;;;;;5043132;28;20083;-67
2021/12/03 00:27:28;;;;;;;27.02;9.20;;;;;;;;;;5048082;28;20125;-67
2021/12/03 00:29:53;;;;;;;26.50;8.85;;;;;;;;;;5048545;28;20523;-67
2021/12/03 00:32:19;;;;;;;19.67;8.50;;;;;;;;;;5041054;28;20024;-67
2021/12/03 00:34:44;;;;;;;27.65;8.57;;;;;;;;;;5053900;28;20512;-67
2021/12/03 00:37:10;;;;;;;31.38;11.13;;;;;;;;;;5050567;28;20041;-67
2021/12/03 00:39:35;;;;;;;30.25;9.35;;;;;;;;;;5045806;28;20461;-67
2021/12/03 00:42:03;;;;;;;37.97;9.65;;;;;;;;;;5043767;28;20136;-67
2021/12/03 00:44:30;;;;;;;34.45;9.73;;;;;;;;;;5035320;28;20025;-67
2021/12/03 00:46:56;;;;;;;25.45;8.43;;;;;;;;;;5032231;28;20048;-67
2021/12/03 00:49:22;;;;;;;33.80;10.30;;;;;;;;;;5027432;28;20033;-67
2021/12/03 00:51:47;;;;;;;26.55;9.05;;;;;;;;;;5042697;28;20045;-67
2021/12/03 00:54:13;;;;;;;24.65;8.05;;;;;;;;;;5044582;28;20087;-67
2021/12/03 00:56:39;;;;;;;22.77;8.98;;;;;;;;;;5051132;28;20032;-67
2021/12/03 00:59:05;;;;;;;25.40;8.45;;;;;;;;;;5039332;28;20521;-67
2021/12/03 01:01:31;;;;;;;26.95;10.02;;;;;;;;;;5016011;28;20037;-67
2021/12/03 01:03:56;;;;;;;24.98;9.43;;;;;;;;;;5043523;28;20043;-67
2021/12/03 01:06:21;;;;;;;35.83;8.93;;;;;;;;;;5043279;28;20044;-68
2021/12/03 01:08:47;;;;;;;31.95;8.50;;;;;;;;;;5041807;28;20502;-67
2021/12/03 01:11:12;;;;;;;31.92;9.43;;;;;;;;;;5044311;28;20021;-67
2021/12/03 01:13:40;;;;;;;30.58;9.65;;;;;;;;;;5049815;28;20124;-67
2021/12/03 01:16:07;;;;;;;34.15;9.80;;;;;;;;;;5049715;28;20033;-67
2021/12/03 01:18:33;;;;;;;24.20;7.70;;;;;;;;;;5046972;28;20039;-67
2021/12/03 01:20:59;;;;;;;29.60;8.68;;;;;;;;;;5039870;28;21118;-67
2021/12/03 01:23:24;;;;;;;31.85;8.68;;;;;;;;;;5033117;28;20120;-67
2021/12/03 01:25:50;;;;;;;29.92;7.47;;;;;;;;;;5042308;28;20763;-67
2021/12/03 01:28:16;;;;;;;25.85;7.35;;;;;;;;;;5048462;28;20048;-67
2021/12/03 01:30:42;;;;;;;23.85;6.80;;;;;;;;;;5038346;28;20112;-67
2021/12/03 01:33:07;;;;;;;23.63;6.95;;;;;;;;;;5047370;28;20048;-67
2021/12/03 01:35:35;;;;;;;20.90;6.07;;;;;;;;;;5032587;28;20099;-67
2021/12/03 01:38:00;;;;;;;21.40;7.18;;;;;;;;;;5047115;28;20513;-67
2021/12/03 01:40:28;;;;;;;22.33;6.43;;;;;;;;;;5039434;28;20032;-67
2021/12/03 01:42:54;;;;;;;25.30;6.13;;;;;;;;;;5032275;28;20043;-67
2021/12/03 01:45:24;;;;;;;18.25;5.70;;;;;;;;;;5051032;28;20036;-67
2021/12/03 01:47:50;;;;;;;10.80;4.88;;;;;;;;;;5050911;28;20040;-67
2021/12/03 01:50:17;;;;;;;20.10;5.45;;;;;;;;;;5050978;28;20052;-67
2021/12/03 01:52:42;;;;;;;15.10;4.50;;;;;;;;;;5031884;28;20064;-67
2021/12/03 01:55:10;;;;;;;22.13;5.25;;;;;;;;;;5049380;28;20506;-67
2021/12/03 01:57:35;;;;;;;18.55;6.60;;;;;;;;;;5048907;28;20032;-68
2021/12/03 02:00:01;;;;;;;18.23;5.00;;;;;;;;;;5032121;28;20116;-67
2021/12/03 02:02:27;;;;;;;21.00;6.13;;;;;;;;;;5049648;28;20052;-67
2021/12/03 02:04:56;;;;;;;21.98;5.25;;;;;;;;;;5049293;28;20323;-67
2021/12/03 02:07:21;;;;;;;21.92;5.30;;;;;;;;;;5049099;28;20498;-67
2021/12/03 02:09:46;;;;;;;17.80;5.15;;;;;;;;;;5048384;28;20037;-67
2021/12/03 02:12:12;;;;;;;18.45;4.82;;;;;;;;;;5049186;28;20428;-67
2021/12/03 02:14:37;;;;;;;25.33;5.78;;;;;;;;;;5048692;28;20486;-67
2021/12/03 02:17:03;;;;;;;27.25;5.28;;;;;;;;;;5050773;28;20044;-67
2021/12/03 02:19:29;;;;;;;18.75;5.25;;;;;;;;;;5048654;28;20041;-67
2021/12/03 02:21:54;;;;;;;16.58;5.40;;;;;;;;;;5042827;28;20045;-67
2021/12/03 02:24:21;;;;;;;17.15;5.20;;;;;;;;;;5025048;28;20549;-67
2021/12/03 02:26:47;;;;;;;18.08;5.13;;;;;;;;;;5031351;28;20052;-67
2021/12/03 02:29:13;;;;;;;28.35;5.40;;;;;;;;;;5028910;28;20116;-67
2021/12/03 02:31:38;;;;;;;15.52;5.60;;;;;;;;;;5033173;28;20116;-67
2021/12/03 02:34:04;;;;;;;18.75;4.45;;;;;;;;;;5031784;28;20032;-67
2021/12/03 02:36:29;;;;;;;14.30;4.57;;;;;;;;;;5049623;28;20033;-67
2021/12/03 02:38:55;;;;;;;15.23;4.68;;;;;;;;;;5049410;28;20081;-67
2021/12/03 02:41:21;;;;;;;13.98;4.63;;;;;;;;;;5024780;28;20144;-67
2021/12/03 02:43:46;;;;;;;23.63;6.10;;;;;;;;;;5027973;28;20405;-67
2021/12/03 02:46:12;;;;;;;14.18;4.07;;;;;;;;;;5024752;28;20541;-67
2021/12/03 02:48:38;;;;;;;18.85;5.28;;;;;;;;;;5027064;28;20515;-67
2021/12/03 02:51:05;;;;;;;17.40;4.28;;;;;;;;;;5028618;28;20042;-67
2021/12/03 02:53:31;;;;;;;27.58;5.70;;;;;;;;;;5023907;28;20030;-67
2021/12/03 02:55:56;;;;;;;14.95;4.65;;;;;;;;;;5025614;28;20030;-67
2021/12/03 02:58:22;;;;;;;19.65;4.72;;;;;;;;;;5028189;28;20040;-67
2021/12/03 03:00:50;;;;;;;14.40;4.57;;;;;;;;;;5027152;28;20088;-67
2021/12/03 03:03:16;;;;;;;15.32;4.63;;;;;;;;;;5029002;28;20407;-67
2021/12/03 03:05:46;;;;;;;12.68;3.92;;;;;;;;;;5025889;28;20541;-67
2021/12/03 03:08:11;;;;;;;21.83;5.20;;;;;;;;;;5015386;28;20049;-67
2021/12/03 03:10:41;;;;;;;15.80;3.97;;;;;;;;;;5029151;28;20037;-67
2021/12/03 03:13:07;;;;;;;15.90;4.85;;;;;;;;;;5028699;28;20511;-67
2021/12/03 03:15:33;;;;;;;18.60;4.72;;;;;;;;;;5023329;28;20049;-67
2021/12/03 03:18:27;;;;;;;18.45;5.55;;;;;;;;;;5028076;28;20049;-67
2021/12/03 03:20:55;;;;;;;16.08;5.18;;;;;;;;;;5027237;28;20038;-67
2021/12/03 03:23:21;;;;;;;12.88;4.82;;;;;;;;;;5020941;28;20063;-67
2021/12/03 03:25:47;;;;;;;11.43;4.00;;;;;;;;;;5026393;28;20065;-67
2021/12/03 03:28:13;;;;;;;9.90;4.57;;;;;;;;;;5027887;28;20037;-67
2021/12/03 03:30:41;;;;;;;16.48;4.68;;;;;;;;;;5028224;28;20049;-67
2021/12/03 03:33:07;;;;;;;11.57;3.80;;;;;;;;;;5028492;28;20033;-67
2021/12/03 03:35:33;;;;;;;24.83;5.13;;;;;;;;;;5028126;28;20025;-67
2021/12/03 03:37:58;;;;;;;15.80;4.43;;;;;;;;;;5025036;28;20407;-67
2021/12/03 03:40:24;;;;;;;13.80;4.88;;;;;;;;;;5029641;28;20042;-67
2021/12/03 03:42:49;;;;;;;15.52;4.05;;;;;;;;;;5040625;28;20179;-67
2021/12/03 03:45:19;;;;;;;22.30;4.53;;;;;;;;;;5042520;28;20037;-67
2021/12/03 03:47:45;;;;;;;13.30;4.55;;;;;;;;;;5029860;28;20039;-67
2021/12/03 03:50:12;;;;;;;15.10;4.43;;;;;;;;;;5031194;28;20544;-67
2021/12/03 03:52:39;;;;;;;18.92;4.68;;;;;;;;;;5042995;28;20045;-67
2021/12/03 03:55:06;;;;;;;18.40;5.20;;;;;;;;;;5030566;28;20179;-67
2021/12/03 03:57:31;;;;;;;21.80;5.20;;;;;;;;;;5038432;28;20424;-67
2021/12/03 03:59:56;;;;;;;14.18;4.63;;;;;;;;;;5047615;28;20493;-67
2021/12/03 04:02:22;;;;;;;18.92;4.63;;;;;;;;;;5038367;28;20036;-67
2021/12/03 04:04:47;;;;;;;14.35;4.38;;;;;;;;;;5043724;28;20565;-67
2021/12/03 04:07:12;;;;;;;13.85;4.45;;;;;;;;;;5047041;28;20041;-67
2021/12/03 04:09:38;;;;;;;13.25;4.47;;;;;;;;;;5043396;28;20514;-67
2021/12/03 04:12:03;;;;;;;15.85;4.47;;;;;;;;;;5036316;28;20585;-67
2021/12/03 04:14:29;;;;;;;16.05;4.75;;;;;;;;;;5057011;28;20509;-67
2021/12/03 04:16:54;;;;;;;17.67;4.25;;;;;;;;;;5025530;28;20052;-67
2021/12/03 04:19:20;;;;;;;20.63;5.32;;;;;;;;;;5040539;28;20587;-67
2021/12/03 04:21:45;;;;;;;17.50;4.60;;;;;;;;;;5044096;28;20144;-67
2021/12/03 04:24:10;;;;;;;17.10;4.90;;;;;;;;;;5050346;28;20037;-67
2021/12/03 04:26:36;;;;;;;16.70;4.85;;;;;;;;;;5045310;28;20028;-67
2021/12/03 04:29:02;;;;;;;22.02;5.00;;;;;;;;;;5050928;28;20076;-67
2021/12/03 04:31:28;;;;;;;25.92;5.63;;;;;;;;;;5058665;28;20043;-67
2021/12/03 04:33:54;;;;;;;19.48;5.95;;;;;;;;;;5049890;28;20045;-67
2021/12/03 04:36:20;;;;;;;24.00;6.10;;;;;;;;;;5048451;28;20034;-67
2021/12/03 04:38:45;;;;;;;24.30;7.57;;;;;;;;;;5037224;28;20037;-67
2021/12/03 04:41:10;;;;;;;30.52;6.43;;;;;;;;;;5049845;28;20419;-67
2021/12/03 04:43:36;;;;;;;24.45;6.15;;;;;;;;;;5039444;28;20076;-67
2021/12/03 04:46:01;;;;;;;20.98;6.53;;;;;;;;;;5048625;28;20058;-67
2021/12/03 04:48:27;;;;;;;19.48;7.35;;;;;;;;;;5051036;28;20033;-67
2021/12/03 04:50:52;;;;;;;20.13;5.65;;;;;;;;;;5050019;28;20029;-67
2021/12/03 04:53:19;;;;;;;13.75;5.60;;;;;;;;;;5050645;28;20025;-67
2021/12/03 04:55:46;;;;;;;22.70;8.00;;;;;;;;;;5027589;28;20152;-67
2021/12/03 04:58:11;;;;;;;28.27;8.75;;;;;;;;;;5048138;28;20041;-67
2021/12/03 05:00:40;;;;;;;26.40;7.43;;;;;;;;;;5051538;28;20041;-67
2021/12/03 05:03:07;;;;;;;24.77;7.93;;;;;;;;;;5034196;28;20041;-67
2021/12/03 05:05:34;;;;;;;28.20;8.10;;;;;;;;;;5046409;28;20490;-67
2021/12/03 05:08:10;;;;;;;16.55;6.22;;;;;;;;;;5049734;28;20032;-67
2021/12/03 05:10:38;;;;;;;20.52;6.72;;;;;;;;;;5048605;28;20029;-67
2021/12/03 05:13:06;;;;;;;24.63;6.28;;;;;;;;;;5051129;28;20561;-66
2021/12/03 05:15:33;;;;;;;23.42;5.95;;;;;;;;;;5031242;28;20037;-67
2021/12/03 05:17:59;;;;;;;20.55;5.35;;;;;;;;;;5051303;28;20115;-67
2021/12/03 05:20:24;;;;;;;14.85;5.40;;;;;;;;;;5051370;28;20470;-67
2021/12/03 05:22:51;;;;;;;25.08;6.78;;;;;;;;;;5046755;28;20091;-67
2021/12/03 05:25:17;;;;;;;23.02;6.32;;;;;;;;;;5049881;28;20029;-67
2021/12/03 05:27:42;;;;;;;21.08;5.55;;;;;;;;;;5050075;28;20043;-67
2021/12/03 05:30:08;;;;;;;24.20;3.95;;;;;;;;;;5044853;28;20029;-67
2021/12/03 05:32:34;;;;;;;19.65;4.47;;;;;;;;;;5032260;28;20132;-67
2021/12/03 05:34:59;;;;;;;13.23;3.53;;;;;;;;;;5047814;28;20120;-67
2021/12/03 05:37:25;;;;;;;13.93;4.38;;;;;;;;;;5054357;28;20099;-67
2021/12/03 05:39:50;;;;;;;14.23;3.00;;;;;;;;;;5051006;28;20033;-66
2021/12/03 05:42:16;;;;;;;10.80;3.65;;;;;;;;;;5049772;28;20045;-67
2021/12/03 05:44:41;;;;;;;8.68;3.28;;;;;;;;;;5047279;28;20079;-67
2021/12/03 05:47:07;;;;;;;8.75;3.25;;;;;;;;;;5050045;28;20032;-67
2021/12/03 05:49:32;;;;;;;12.02;3.42;;;;;;;;;;5048080;28;20472;-67
2021/12/03 05:51:57;;;;;;;5.60;2.47;;;;;;;;;;5049049;28;20569;-67
2021/12/03 05:54:25;;;;;;;20.88;3.72;;;;;;;;;;5046149;28;20033;-67
2021/12/03 05:56:50;;;;;;;7.72;3.05;;;;;;;;;;5048392;28;20029;-67
2021/12/03 05:59:16;;;;;;;13.73;3.25;;;;;;;;;;5050431;28;20029;-66
2021/12/03 06:01:41;;;;;;;12.65;3.08;;;;;;;;;;5048393;28;20045;-67
2021/12/03 06:04:06;;;;;;;18.20;3.45;;;;;;;;;;5048660;28;20465;-68
2021/12/03 06:06:32;;;;;;;14.15;3.55;;;;;;;;;;5060035;28;20418;-66
2021/12/03 06:09:00;;;;;;;7.72;2.67;;;;;;;;;;5047578;28;20025;-67
2021/12/03 06:11:26;;;;;;;13.18;2.88;;;;;;;;;;5051191;28;20119;-67
2021/12/03 06:13:51;;;;;;;12.65;3.00;;;;;;;;;;5032572;28;20110;-67
2021/12/03 06:16:17;;;;;;;16.42;3.20;;;;;;;;;;5031874;28;20454;-67
2021/12/03 06:18:43;;;;;;;12.65;2.90;;;;;;;;;;5026805;28;20044;-67
2021/12/03 06:21:11;;;;;;;5.82;2.92;;;;;;;;;;5049707;28;20112;-66
2021/12/03 06:23:37;;;;;;;12.60;2.70;;;;;;;;;;5048197;28;20033;-67
2021/12/03 06:26:04;;;;;;;15.80;3.67;;;;;;;;;;5039261;28;20052;-67
2021/12/03 06:28:31;;;;;;;10.30;3.08;;;;;;;;;;5043755;28;20099;-67
2021/12/03 06:30:57;;;;;;;6.93;2.55;;;;;;;;;;5048284;28;20052;-67
2021/12/03 06:33:22;;;;;;;9.00;3.00;;;;;;;;;;5028342;28;20033;-67
2021/12/03 06:35:48;;;;;;;11.40;2.67;;;;;;;;;;5042978;28;20040;-67
2021/12/03 06:38:15;;;;;;;11.60;2.67;;;;;;;;;;5045812;28;20044;-67
2021/12/03 06:40:42;;;;;;;15.38;2.80;;;;;;;;;;5027666;28;20060;-67
2021/12/03 06:43:07;;;;;;;10.25;2.50;;;;;;;;;;5028164;28;20449;-67
2021/12/03 06:45:32;;;;;;;10.68;2.80;;;;;;;;;;5022654;28;20049;-67
2021/12/03 06:47:58;;;;;;;6.53;1.67;;;;;;;;;;5028525;28;20033;-67
2021/12/03 06:50:24;;;;;;;9.40;2.10;;;;;;;;;;5028943;28;20405;-67
2021/12/03 06:53:27;;;;;;;13.65;3.40;;;;;;;;;;5029393;28;20045;-67
2021/12/03 06:58:16;;;;;;;11.20;3.92;;;;;;;;;;5028743;28;20045;-67
2021/12/03 07:00:42;;;;;;;10.90;3.13;;;;;;;;;;5029605;28;20106;-67
2021/12/03 07:03:08;;;;;;;17.23;3.75;;;;;;;;;;5025813;28;20092;-67
2021/12/03 07:05:33;;;;;;;14.45;4.32;;;;;;;;;;5029568;28;20029;-67
2021/12/03 07:07:59;;;;;;;11.75;3.88;;;;;;;;;;5032509;28;20045;-67
2021/12/03 07:10:24;;;;;;;6.22;2.95;;;;;;;;;;5030707;28;20045;-67
2021/12/03 07:12:49;;;;;;;8.65;3.20;;;;;;;;;;5018132;28;20113;-67
2021/12/03 07:15:15;;;;;;;11.93;3.28;;;;;;;;;;5025720;28;20037;-67
2021/12/03 07:17:40;;;;;;;8.05;3.15;;;;;;;;;;5025818;28;20098;-67
2021/12/03 07:20:07;;;;;;;7.22;2.47;;;;;;;;;;5024942;28;20033;-67
2021/12/03 07:22:33;;;;;;;4.78;2.13;;;;;;;;;;5028387;28;20060;-67
2021/12/03 07:24:58;;;;;;;6.65;2.15;;;;;;;;;;5028962;28;20033;-67
2021/12/03 07:27:25;;;;;;;14.45;4.75;;;;;;;;;;5028717;28;20075;-66
2021/12/03 07:29:50;;;;;;;15.60;3.28;;;;;;;;;;5028802;28;20047;-66
2021/12/03 07:32:17;;;;;;;14.45;4.45;;;;;;;;;;5027788;28;20033;-66
2021/12/03 07:34:43;;;;;;;12.55;3.92;;;;;;;;;;5026739;28;20524;-66
2021/12/03 07:37:09;;;;;;;11.63;4.32;;;;;;;;;;5017705;28;20636;-67
2021/12/03 07:39:34;;;;;;;17.08;4.63;;;;;;;;;;5026914;28;20711;-66
2021/12/03 07:42:00;;;;;;;11.38;4.40;;;;;;;;;;5023677;28;20052;-66
2021/12/03 07:44:25;;;;;;;11.57;3.15;;;;;;;;;;5027636;28;20475;-67
2021/12/03 07:46:50;;;;;;;7.72;2.65;;;;;;;;;;5015662;28;20076;-66
2021/12/03 07:49:16;;;;;;;10.43;3.65;;;;;;;;;;5024181;28;20038;-66
2021/12/03 07:51:42;;;;;;;10.15;3.58;;;;;;;;;;5019082;28;20049;-66
2021/12/03 07:54:07;;;;;;;11.40;3.83;;;;;;;;;;5024888;28;20038;-66
2021/12/03 07:56:32;;;;;;;17.55;4.35;;;;;;;;;;5022924;28;20115;-66
2021/12/03 07:58:58;;;;;;;13.23;4.28;;;;;;;;;;5014477;28;20044;-66
2021/12/03 08:01:24;;;;;;;13.10;4.28;;;;;;;;;;5027785;28;20044;-66
2021/12/03 08:03:50;;;;;;;10.00;3.83;;;;;;;;;;5027994;28;20045;-66
2021/12/03 08:06:15;;;;;;;12.38;4.20;;;;;;;;;;5026863;28;20044;-66
2021/12/03 08:08:41;;;;;;;16.27;4.68;;;;;;;;;;5021054;28;20061;-66
2021/12/03 08:11:07;;;;;;;7.72;2.60;;;;;;;;;;5024453;28;20056;-66
2021/12/03 08:13:33;;;;;;;14.18;4.18;;;;;;;;;;5026309;28;20465;-66
2021/12/03 08:15:59;;;;;;;9.50;2.83;;;;;;;;;;5022749;28;20064;-66
2021/12/03 08:18:25;;;;;;;12.40;3.55;;;;;;;;;;5025612;28;20722;-66
2021/12/03 08:20:52;;;;;;;9.32;3.78;;;;;;;;;;5022695;28;20021;-66
2021/12/03 08:23:18;;;;;;;11.35;4.40;;;;;;;;;;5028122;28;20041;-66
2021/12/03 08:25:43;;;;;;;9.93;4.55;;;;;;;;;;5022748;28;20538;-66
2021/12/03 08:28:09;;;;;;;20.77;4.00;;;;;;;;;;5025484;28;20072;-66
2021/12/03 08:30:34;;;;;;;14.48;4.18;;;;;;;;;;5027595;28;20067;-66
2021/12/03 08:33:00;;;;;;;14.98;4.00;;;;;;;;;;5020848;28;21031;-66
2021/12/03 08:35:25;;;;;;;7.63;3.17;;;;;;;;;;5019007;28;20040;-70
2021/12/03 08:37:51;;;;;;;10.68;4.15;;;;;;;;;;5015537;28;20640;-68
2021/12/03 08:40:19;;;;;;;11.40;3.65;;;;;;;;;;5021668;28;20083;-68
2021/12/03 08:42:45;;;;;;;7.85;3.60;;;;;;;;;;5023668;28;20037;-68
2021/12/03 08:45:15;;;;;;;13.07;3.85;;;;;;;;;;5038566;28;20055;-66
2021/12/03 08:47:41;;;;;;;9.75;3.90;;;;;;;;;;5041198;28;20047;-70
2021/12/03 08:50:13;;;;;;;7.70;2.63;;;;;;;;;;5035067;28;20407;-68
2021/12/03 08:55:24;;;;;;;9.95;2.63;;;;;;;;;;4996241;28;20079;-70
2021/12/03 08:57:50;;;;;;;10.40;3.97;;;;;;;;;;5029133;28;20061;-70
2021/12/03 09:00:19;;;;;;;12.65;3.08;;;;;;;;;;5031904;28;20033;-67
2021/12/03 09:02:44;;;;;;;9.52;3.28;;;;;;;;;;5039434;28;20040;-67
2021/12/03 09:05:11;;;;;;;6.88;3.60;;;;;;;;;;5046510;28;20025;-67
2021/12/03 09:07:36;;;;;;;6.22;1.73;;;;;;;;;;5043016;28;20040;-67
2021/12/03 09:10:05;;;;;;;7.18;3.30;;;;;;;;;;5029300;28;20051;-67
2021/12/03 09:12:30;;;;;;;6.22;2.28;;;;;;;;;;5028552;28;20414;-67
2021/12/03 09:14:59;;;;;;;8.45;3.90;;;;;;;;;;5023811;28;20029;-67
2021/12/03 09:17:37;;;;;;;6.03;2.88;;;;;;;;;;5049433;28;20543;-66
2021/12/03 09:25:03;;;;;;;12.65;3.40;;;;;;;;;;5046975;28;20419;-66
2021/12/03 09:27:29;;;;;;;7.85;3.70;;;;;;;;;;5047912;28;20677;-67
2021/12/03 09:29:55;;;;;;;10.55;4.40;;;;;;;;;;5049072;28;20047;-66
2021/12/03 09:32:26;;;;;;;12.27;5.50;;;;;;;;;;5029257;28;20036;-66
2021/12/03 09:34:52;;;;;;;20.55;6.95;;;;;;;;;;5046184;28;20041;-67
2021/12/03 09:37:18;;;;;;;21.25;5.88;;;;;;;;;;5047559;28;20472;-66
2021/12/03 09:39:45;;;;;;;10.63;4.75;;;;;;;;;;5046165;28;20040;-66
2021/12/03 09:42:11;;;;;;;14.32;5.75;;;;;;;;;;5033943;28;20037;-67
2021/12/03 09:44:40;;;;;;;11.50;4.50;;;;;;;;;;5045148;28;20033;-66
2021/12/03 09:47:06;;;;;;;9.77;4.13;;;;;;;;;;5049673;28;20041;-65
2021/12/03 09:49:34;;;;;;;16.55;3.78;;;;;;;;;;5048071;28;20033;-64
2021/12/03 09:54:42;;;;;;;8.90;4.40;;;;;;;;;;5047229;28;20049;-66
2021/12/03 09:57:13;;;;;;;7.13;3.53;;;;;;;;;;5045128;28;20072;-66
2021/12/03 10:00:03;;;;;;;14.32;3.88;;;;;;;;;;5030419;28;20021;-69
2021/12/03 10:02:52;;;;;;;5.38;2.85;;;;;;;;;;5046415;28;20037;-66
2021/12/03 10:11:43;;;;;;;12.35;3.65;;;;;;;;;;5047971;28;20037;-66
2021/12/03 10:14:12;;;;;;;7.20;3.42;;;;;;;;;;5045125;28;20465;-67
2021/12/03 10:17:19;;;;;;;11.07;4.07;;;;;;;;;;5027945;28;20037;-66
2021/12/03 10:20:25;;;;;;;7.03;2.10;;;;;;;;;;5043374;28;20036;-66
2021/12/03 10:28:29;;;;;;;11.68;4.07;;;;;;;;;;5041859;28;20044;-66
2021/12/03 10:49:27;;;;;;;11.45;4.53;;;;;;;;;;5020955;28;20108;-66
2021/12/03 10:51:50;;;;;;;11.73;4.72;;;;;;;;;;5023849;28;20038;-67
2021/12/03 11:29:58;;;;;;;7.65;2.97;;;;;;;;;;5025472;28;20118;-66
2021/12/03 11:33:48;;;;;;;10.32;3.70;;;;;;;;;;5014188;28;20037;-64
2021/12/03 11:52:09;;;;;;;8.88;3.38;;;;;;;;;;5032391;28;20578;-64
2021/12/03 13:56:04;;;;;;;3.17;2.10;;;;;;;;;;5012076;28;20092;-65
2021/12/03 14:55:33;;;;;;;20.65;6.20;;;;;;;;;;5025438;28;20570;-66
2021/12/03 14:58:10;;;;;;;12.80;4.55;;;;;;;;;;5030541;28;20498;-66
2021/12/03 15:00:48;;;;;;;8.38;3.80;;;;;;;;;;5026683;28;20049;-66
2021/12/03 15:08:50;;;;;;;5.30;2.78;;;;;;;;;;5026499;28;20042;-66
2021/12/03 15:19:24;;;;;;;5.07;2.53;;;;;;;;;;5026926;28;20045;-65
2021/12/03 15:32:10;;;;;;;6.40;2.92;;;;;;;;;;5019136;28;20037;-65
2021/12/03 15:34:50;;;;;;;3.97;2.40;;;;;;;;;;5022276;28;20116;-66
2021/12/03 15:37:40;;;;;;;2.67;2.22;;;;;;;;;;5022912;28;20625;-68
2021/12/03 16:04:21;;;;;;;3.47;2.15;;;;;;;;;;5021810;28;20047;-66
2021/12/03 16:25:34;;;;;;;4.43;2.85;;;;;;;;;;5027881;28;20852;-67
2021/12/03 16:43:39;;;;;;;5.32;2.22;;;;;;;;;;5021530;28;20044;-68
2021/12/03 16:50:27;;;;;;;4.50;2.97;;;;;;;;;;5044629;28;20037;-66
2021/12/03 16:52:46;;;;;;;3.42;2.17;;;;;;;;;;5045825;28;20414;-66
2021/12/03 16:55:12;;;;;;;2.20;1.70;;;;;;;;;;5030571;28;20042;-66
2021/12/03 16:57:38;;;;;;;2.83;2.13;;;;;;;;;;5052752;28;20417;-66
2021/12/03 17:16:26;;;;;;;3.60;2.00;;;;;;;;;;5044848;28;20501;-66
2021/12/03 17:46:22;;;;;;;5.90;3.55;;;;;;;;;;5010874;28;20188;-66
2021/12/03 17:54:09;;;;;;;4.53;2.83;;;;;;;;;;5014342;28;20037;-66
2021/12/03 17:56:41;;;;;;;4.47;2.90;;;;;;;;;;5011059;28;20022;-66
2021/12/03 18:04:22;;;;;;;5.10;2.72;;;;;;;;;;5017900;28;20419;-65
2021/12/03 18:17:23;;;;;;;6.10;3.25;;;;;;;;;;5021903;28;20064;-67
2021/12/03 18:44:16;;;;;;;3.70;1.50;;;;;;;;;;5030616;28;20418;-69
2021/12/03 18:55:03;;;;;;;4.13;2.60;;;;;;;;;;5038499;28;20056;-67
2021/12/03 18:57:32;;;;;;;5.18;3.40;;;;;;;;;;5023349;28;20045;-69
2021/12/03 19:00:02;;;;;;;6.13;2.78;;;;;;;;;;5034607;28;20043;-70
2021/12/03 19:02:28;;;;;;;7.60;4.22;;;;;;;;;;5041200;28;20780;-69
2021/12/03 19:05:02;;;;;;;6.97;3.53;;;;;;;;;;5042493;28;20032;-69
2021/12/03 19:07:36;;;;;;;;;;;;;;;;;;5052362;28;20063;-71
2021/12/03 19:10:07;;;;;;;6.22;3.53;;;;;;;;;;5021666;28;19971;-70
2021/12/03 19:12:35;;;;;;;6.50;3.42;;;;;;;;;;5025362;28;20509;-71
2021/12/03 19:15:01;;;;;;;7.53;4.30;;;;;;;;;;5034537;28;20088;-71
2021/12/03 19:17:30;;;;;;;6.57;3.17;;;;;;;;;;5026263;28;20063;-69
2021/12/03 19:19:59;;;;;;;3.08;2.20;;;;;;;;;;5038221;28;20106;-70
2021/12/03 19:22:25;;;;;;;5.43;2.95;;;;;;;;;;5030475;28;20123;-69
2021/12/03 19:24:57;;;;;;;7.78;3.33;;;;;;;;;;5023885;28;20088;-72
2021/12/03 19:27:24;;;;;;;4.38;2.53;;;;;;;;;;5018365;28;20048;-67
2021/12/03 19:29:50;;;;;;;5.25;2.83;;;;;;;;;;5035232;28;20032;-67
2021/12/03 19:32:16;;;;;;;5.65;2.63;;;;;;;;;;5031641;28;20035;-67
2021/12/03 19:34:41;;;;;;;5.97;3.40;;;;;;;;;;5026757;28;20052;-66
2021/12/03 19:37:06;;;;;;;6.28;3.47;;;;;;;;;;5042160;28;20740;-67
2021/12/03 19:39:32;;;;;;;3.90;2.97;;;;;;;;;;5028893;28;20044;-67
2021/12/03 19:42:04;;;;;;;6.95;3.60;;;;;;;;;;5022717;28;20064;-67
2021/12/03 19:44:38;;;;;;;7.18;4.25;;;;;;;;;;5007862;28;20029;-67
2021/12/03 19:47:06;;;;;;;5.68;3.40;;;;;;;;;;5020857;28;20068;-68
2021/12/03 19:49:49;;;;;;;4.45;2.60;;;;;;;;;;5020586;28;20056;-67
2021/12/03 19:52:27;;;;;;;5.63;3.40;;;;;;;;;;5003516;28;20041;-69
2021/12/03 19:54:55;;;;;;;4.53;2.88;;;;;;;;;;5001941;28;20037;-69
2021/12/03 19:57:22;;;;;;;5.28;3.33;;;;;;;;;;5002707;28;20128;-66
2021/12/03 19:59:47;;;;;;;3.72;2.55;;;;;;;;;;5020427;28;20055;-68
2021/12/03 20:02:13;;;;;;;5.40;2.78;;;;;;;;;;5012443;28;20700;-72
2021/12/03 20:04:38;;;;;;;6.10;3.13;;;;;;;;;;4989252;28;20096;-66
2021/12/03 20:07:04;;;;;;;6.68;3.42;;;;;;;;;;5027581;28;20566;-66
2021/12/03 20:09:39;;;;;;;5.53;2.55;;;;;;;;;;5037123;28;20809;-66
2021/12/03 20:12:10;;;;;;;5.55;3.28;;;;;;;;;;5025159;28;20507;-66
2021/12/03 20:14:37;;;;;;;6.63;3.08;;;;;;;;;;5022946;28;20025;-66
2021/12/03 20:17:12;;;;;;;4.40;2.35;;;;;;;;;;5023488;28;20125;-66
2021/12/03 20:19:41;;;;;;;6.95;3.63;;;;;;;;;;5026679;28;20046;-65
2021/12/03 20:22:12;;;;;;;4.97;2.70;;;;;;;;;;5021538;28;20056;-65
2021/12/03 20:27:12;;;;;;;5.78;3.33;;;;;;;;;;5013059;28;20846;-65
2021/12/03 20:29:49;;;;;;;6.40;3.72;;;;;;;;;;5024186;28;20025;-65
2021/12/03 20:37:18;;;;;;;4.18;2.72;;;;;;;;;;5016248;28;20045;-65
2021/12/03 20:39:45;;;;;;;4.93;3.17;;;;;;;;;;5021533;28;20458;-68
2021/12/03 20:42:20;;;;;;;3.70;2.00;;;;;;;;;;5023362;28;20045;-67
2021/12/03 20:45:19;;;;;;;5.43;2.83;;;;;;;;;;5016269;28;21057;-67
2021/12/03 21:09:14;;;;;;;3.88;2.10;;;;;;;;;;5022847;28;20419;-67
2021/12/03 21:11:46;;;;;;;3.47;2.17;;;;;;;;;;5023127;28;20036;-67
2021/12/03 21:14:18;;;;;;;2.35;1.65;;;;;;;;;;5025518;28;20049;-71
2021/12/03 21:16:55;;;;;;;2.30;1.42;;;;;;;;;;5025356;28;20426;-65
2021/12/03 21:19:37;;;;;;;3.70;2.22;;;;;;;;;;5026680;28;20033;-66
2021/12/03 21:22:19;;;;;;;4.50;2.30;;;;;;;;;;5028203;28;20033;-66
2021/12/03 21:24:47;;;;;;;10.15;2.65;;;;;;;;;;5012025;28;20041;-66
2021/12/03 21:27:19;;;;;;;7.78;2.80;;;;;;;;;;5027865;28;20043;-66
2021/12/03 21:40:17;;;;;;;8.88;4.13;;;;;;;;;;5027361;28;20052;-66
2021/12/03 21:42:43;;;;;;;11.27;4.68;;;;;;;;;;5033818;28;20502;-66
2021/12/03 21:45:09;;;;;;;9.18;4.72;;;;;;;;;;5036156;28;20068;-66
2021/12/03 21:47:34;;;;;;;7.40;3.72;;;;;;;;;;5044424;28;20146;-66
2021/12/03 21:50:00;;;;;;;4.95;2.78;;;;;;;;;;5043489;28;20148;-66
2021/12/03 21:52:27;;;;;;;4.63;2.80;;;;;;;;;;5046404;28;20611;-66
2021/12/03 21:54:53;;;;;;;5.43;2.42;;;;;;;;;;5044848;28;20699;-66
2021/12/03 21:57:19;;;;;;;2.50;2.08;;;;;;;;;;5046073;28;20052;-66
2021/12/03 21:59:44;;;;;;;4.78;2.35;;;;;;;;;;5047793;28;20025;-66
2021/12/03 22:02:11;;;;;;;4.88;2.88;;;;;;;;;;5049640;28;20050;-66
2021/12/03 22:04:36;;;;;;;5.60;2.22;;;;;;;;;;5052623;28;20044;-66
2021/12/03 22:07:06;;;;;;;4.82;2.78;;;;;;;;;;5035230;28;20033;-66
2021/12/03 22:09:33;;;;;;;3.83;2.20;;;;;;;;;;5040149;28;20082;-66
2021/12/03 22:11:59;;;;;;;3.50;1.98;;;;;;;;;;5023726;28;20033;-65
2021/12/03 22:14:24;;;;;;;4.85;2.63;;;;;;;;;;5044890;28;20383;-66
2021/12/03 22:16:50;;;;;;;4.53;2.08;;;;;;;;;;5044447;28;20033;-65
2021/12/03 22:19:16;;;;;;;3.72;2.10;;;;;;;;;;5027878;28;20037;-66
2021/12/03 22:21:42;;;;;;;4.72;2.08;;;;;;;;;;5042278;28;20033;-66
2021/12/03 22:24:07;;;;;;;7.03;2.67;;;;;;;;;;5034302;28;20035;-66
2021/12/03 22:26:33;;;;;;;2.35;1.48;;;;;;;;;;5044547;28;20025;-66
2021/12/03 22:28:58;;;;;;;1.83;1.30;;;;;;;;;;5053172;28;20025;-66
2021/12/03 22:31:25;;;;;;;5.13;2.38;;;;;;;;;;5048310;28;20040;-66
2021/12/03 22:33:50;;;;;;;7.60;2.78;;;;;;;;;;5046311;28;20040;-66
2021/12/03 22:36:16;;;;;;;18.85;6.35;;;;;;;;;;5046929;28;20044;-66
2021/12/03 22:38:41;;;;;;;15.15;5.10;;;;;;;;;;5047767;28;20029;-66
2021/12/03 22:41:09;;;;;;;3.58;2.40;;;;;;;;;;5044295;28;20506;-66
2021/12/03 22:43:35;;;;;;;2.75;1.92;;;;;;;;;;5044187;28;20033;-66
2021/12/03 22:48:37;;;;;;;3.20;2.07;;;;;;;;;;5047535;28;20136;-66
2021/12/03 22:53:38;;;;;;;2.50;1.73;;;;;;;;;;5044817;28;20037;-66
2021/12/03 22:56:05;;;;;;;2.17;1.23;;;;;;;;;;5046505;28;20041;-66
2021/12/03 22:58:31;;;;;;;1.48;1.13;;;;;;;;;;5048810;28;20571;-66
2021/12/03 23:01:01;;;;;;;2.10;1.48;;;;;;;;;;5042251;28;20025;-66